Time;durP1;ratioP1;P1;durP2;ratioP2;P2;SDS_P1;SDS_P2;PMS_P1;PMS_P2;Temp;Humidity;BMP_temperature;BMP_pressure;BME280_temperature;BME280_humidity;BME280_pressure;Samples;Min_cycle;Max_cycle;Signal;HPM_P1;HPM_P2
2022/01/11 00:00:14;;;;;;;15.87;13.80;;;;;20.30;101869.00;;;;2088046;28;20212;-58
2022/01/11 00:01:15;;;;;;;17.23;14.20;;;;;20.30;101878.00;;;;2088117;28;20251;-58
2022/01/11 00:02:17;;;;;;;16.47;14.77;;;;;20.30;101876.00;;;;2088589;28;20215;-58
2022/01/11 00:03:17;;;;;;;15.05;13.55;;;;;20.30;101875.00;;;;2087922;28;20708;-58
2022/01/11 00:04:18;;;;;;;15.50;13.63;;;;;20.30;101878.00;;;;2088389;28;20239;-58
2022/01/11 00:05:33;;;;;;;16.20;14.57;;;;;20.30;101875.00;;;;2087292;28;20306;-58
2022/01/11 00:07:43;;;;;;;16.60;14.88;;;;;20.30;101877.00;;;;2088545;28;20571;-58
2022/01/11 00:08:45;;;;;;;15.85;13.70;;;;;20.20;101872.00;;;;2088359;28;20213;-58
2022/01/11 00:09:46;;;;;;;15.10;13.60;;;;;20.30;101878.00;;;;2087743;28;20267;-58
2022/01/11 00:10:49;;;;;;;14.67;13.10;;;;;20.30;101877.00;;;;2087272;28;20243;-58
2022/01/11 00:11:50;;;;;;;15.73;13.23;;;;;20.20;101878.00;;;;2087669;28;20455;-58
2022/01/11 00:12:50;;;;;;;13.93;12.50;;;;;20.20;101872.00;;;;2086510;28;20209;-58
2022/01/11 00:13:51;;;;;;;16.37;13.30;;;;;20.20;101890.00;;;;2087776;28;20596;-58
2022/01/11 00:14:52;;;;;;;14.90;13.38;;;;;20.20;101878.00;;;;2086335;28;20304;-58
2022/01/11 00:15:52;;;;;;;14.00;12.60;;;;;20.20;101888.00;;;;2087815;28;20552;-58
2022/01/11 00:16:52;;;;;;;14.43;13.03;;;;;20.20;101884.00;;;;2087764;28;20648;-58
2022/01/11 00:17:53;;;;;;;15.17;13.77;;;;;20.20;101880.00;;;;2087193;28;20606;-57
2022/01/11 00:18:53;;;;;;;14.77;13.37;;;;;20.20;101889.00;;;;2085321;28;20587;-58
2022/01/11 00:19:53;;;;;;;13.47;12.03;;;;;20.20;101887.00;;;;2087379;28;20707;-57
2022/01/11 00:20:54;;;;;;;13.80;12.50;;;;;20.20;101888.00;;;;2087444;28;20266;-58
2022/01/11 00:21:56;;;;;;;13.65;12.38;;;;;20.20;101889.00;;;;2087514;28;20205;-58
2022/01/11 00:24:28;;;;;;;13.38;12.18;;;;;20.20;101879.00;;;;2087580;28;20209;-58
2022/01/11 00:24:36;;;;;;;13.10;11.77;;;;;20.20;101879.00;;;;2084464;28;20302;-58
2022/01/11 00:25:41;;;;;;;14.13;11.57;;;;;20.20;101890.00;;;;2087428;28;20212;-58
2022/01/11 00:26:42;;;;;;;13.57;12.27;;;;;20.20;101883.00;;;;2087922;28;20249;-58
2022/01/11 00:27:42;;;;;;;13.73;12.33;;;;;20.20;101885.00;;;;2088215;28;20209;-58
2022/01/11 00:28:42;;;;;;;13.80;12.27;;;;;20.10;101889.00;;;;2088226;28;20279;-58
2022/01/11 00:29:47;;;;;;;14.37;11.80;;;;;20.10;101896.00;;;;2088161;28;20213;-58
2022/01/11 00:30:49;;;;;;;16.92;13.70;;;;;20.20;101889.00;;;;2087190;28;20294;-58
2022/01/11 00:31:50;;;;;;;14.35;12.90;;;;;20.20;101890.00;;;;2087579;28;20710;-58
2022/01/11 00:32:54;;;;;;;13.10;11.80;;;;;20.10;101889.00;;;;2087927;28;20307;-58
2022/01/11 00:33:54;;;;;;;12.88;11.65;;;;;20.10;101885.00;;;;2088142;28;20688;-58
2022/01/11 00:34:56;;;;;;;12.40;11.23;;;;;20.10;101892.00;;;;2085261;28;20227;-58
2022/01/11 00:35:59;;;;;;;15.40;12.50;;;;;20.10;101884.00;;;;2088167;28;20221;-58
2022/01/11 00:36:59;;;;;;;12.05;10.95;;;;;20.10;101879.00;;;;2088122;28;20221;-58
2022/01/11 00:38:00;;;;;;;12.80;11.60;;;;;20.10;101890.00;;;;2088149;28;20212;-58
2022/01/11 00:39:00;;;;;;;14.00;12.20;;;;;20.10;101882.00;;;;2088252;28;20228;-58
2022/01/11 00:40:04;;;;;;;12.70;11.17;;;;;20.00;101879.00;;;;2087853;28;20303;-58
2022/01/11 00:41:12;;;;;;;12.95;11.65;;;;;20.00;101890.00;;;;2088059;28;20217;-58
2022/01/11 00:42:13;;;;;;;14.88;11.50;;;;;20.00;101886.00;;;;2085308;28;20295;-58
2022/01/11 00:43:15;;;;;;;12.52;11.40;;;;;20.10;101885.00;;;;2088081;28;20711;-58
2022/01/11 00:44:15;;;;;;;12.75;11.45;;;;;20.10;101892.00;;;;2087377;28;20223;-58
2022/01/11 00:45:15;;;;;;;13.30;11.90;;;;;20.10;101886.00;;;;2084320;28;20219;-58
2022/01/11 00:46:16;;;;;;;12.27;10.97;;;;;20.00;101886.00;;;;2088054;28;20213;-58
2022/01/11 00:47:16;;;;;;;11.83;10.73;;;;;20.00;101887.00;;;;2087714;28;20273;-58
2022/01/11 00:48:16;;;;;;;13.07;11.77;;;;;20.00;101891.00;;;;2087342;28;20200;-58
2022/01/11 00:49:17;;;;;;;12.03;10.77;;;;;20.00;101885.00;;;;2087214;28;20212;-58
2022/01/11 00:50:18;;;;;;;13.33;10.90;;;;;20.00;101885.00;;;;2087689;28;20766;-58
2022/01/11 00:51:24;;;;;;;12.65;11.25;;;;;20.00;101883.00;;;;2088078;28;20205;-58
2022/01/11 00:52:25;;;;;;;12.30;11.10;;;;;20.00;101881.00;;;;2087994;28;20210;-58
2022/01/11 00:53:25;;;;;;;12.23;11.00;;;;;20.00;101887.00;;;;2088223;28;20216;-58
2022/01/11 00:54:25;;;;;;;12.07;10.87;;;;;20.00;101884.00;;;;2087842;28;20236;-58
2022/01/11 00:55:26;;;;;;;13.00;11.70;;;;;20.00;101885.00;;;;2084892;28;20704;-58
2022/01/11 00:56:26;;;;;;;11.80;10.80;;;;;20.00;101893.00;;;;2087208;28;20213;-58
2022/01/11 00:57:26;;;;;;;12.10;10.90;;;;;20.00;101886.00;;;;2086990;28;20287;-58
2022/01/11 00:58:27;;;;;;;12.40;11.20;;;;;20.00;101881.00;;;;2086661;28;20677;-58
2022/01/11 00:59:27;;;;;;;12.37;11.10;;;;;20.00;101893.00;;;;2087535;28;20597;-58
2022/01/11 01:00:27;;;;;;;11.27;10.33;;;;;20.00;101893.00;;;;2086533;28;20840;-58
2022/01/11 01:01:33;;;;;;;11.23;10.20;;;;;20.00;101882.00;;;;2086900;28;20244;-58
2022/01/11 01:02:34;;;;;;;12.30;11.00;;;;;19.90;101885.00;;;;2087700;28;20262;-58
2022/01/11 01:03:35;;;;;;;11.60;10.50;;;;;19.90;101889.00;;;;2087822;28;20266;-58
2022/01/11 01:04:35;;;;;;;11.17;10.07;;;;;19.90;101883.00;;;;2087875;28;20538;-58
2022/01/11 01:05:35;;;;;;;11.83;10.73;;;;;19.90;101892.00;;;;2087358;28;20213;-58
2022/01/11 01:06:39;;;;;;;11.40;10.30;;;;;19.90;101884.00;;;;2088044;28;20224;-58
2022/01/11 01:07:39;;;;;;;11.35;10.25;;;;;19.90;101889.00;;;;2087882;28;20224;-57
2022/01/11 01:08:40;;;;;;;13.37;10.97;;;;;19.90;101888.00;;;;2088002;28;20678;-58
2022/01/11 01:10:26;;;;;;;11.90;10.80;;;;;19.90;101887.00;;;;2087709;28;20250;-58
2022/01/11 01:11:03;;;;;;;11.25;10.15;;;;;19.90;101894.00;;;;2079006;28;20283;-58
2022/01/11 01:12:04;;;;;;;11.47;10.37;;;;;19.90;101895.00;;;;2087960;28;20213;-58
2022/01/11 01:13:06;;;;;;;11.43;10.33;;;;;19.90;101899.00;;;;2087912;28;20219;-58
2022/01/11 01:14:07;;;;;;;11.20;10.10;;;;;19.90;101893.00;;;;2084678;28;20208;-58
2022/01/11 01:15:07;;;;;;;11.27;10.17;;;;;19.90;101901.00;;;;2086732;28;20212;-58
2022/01/11 01:16:08;;;;;;;11.47;10.40;;;;;19.80;101897.00;;;;2087403;28;20204;-58
2022/01/11 01:17:09;;;;;;;11.47;10.37;;;;;19.80;101891.00;;;;2082755;28;20805;-58
2022/01/11 01:18:14;;;;;;;11.23;10.23;;;;;19.80;101900.00;;;;2087565;28;20447;-58
2022/01/11 01:19:14;;;;;;;11.70;10.60;;;;;19.80;101896.00;;;;2087675;28;20220;-59
2022/01/11 01:20:15;;;;;;;11.80;10.60;;;;;19.90;101911.00;;;;2087828;28;20225;-59
2022/01/11 01:21:15;;;;;;;10.93;9.90;;;;;19.80;101906.00;;;;2087546;28;20700;-59
2022/01/11 01:22:15;;;;;;;12.17;10.37;;;;;19.90;101911.00;;;;2087841;28;20704;-58
2022/01/11 01:23:16;;;;;;;11.20;10.13;;;;;19.80;101888.00;;;;2087833;28;20742;-58
2022/01/11 01:24:16;;;;;;;11.80;10.70;;;;;19.80;101907.00;;;;2086836;28;20228;-57
2022/01/11 01:25:23;;;;;;;11.90;10.83;;;;;19.80;101911.00;;;;2087095;28;20215;-59
2022/01/11 01:26:23;;;;;;;11.90;10.80;;;;;19.80;101907.00;;;;2087724;28;20204;-58
2022/01/11 01:27:24;;;;;;;10.80;9.70;;;;;19.80;101910.00;;;;2086932;28;20228;-58
2022/01/11 01:28:24;;;;;;;11.20;10.17;;;;;19.80;101902.00;;;;2087148;28;20213;-58
2022/01/11 01:29:24;;;;;;;11.53;10.43;;;;;19.80;101916.00;;;;2087729;28;20219;-58
2022/01/11 01:30:25;;;;;;;11.03;10.03;;;;;19.80;101912.00;;;;2087664;28;20235;-58
2022/01/11 01:31:26;;;;;;;11.10;10.07;;;;;19.80;101914.00;;;;2087944;28;20238;-58
2022/01/11 01:32:27;;;;;;;11.75;10.30;;;;;19.80;101909.00;;;;2087899;28;20201;-58
2022/01/11 01:33:31;;;;;;;12.43;11.23;;;;;19.80;101922.00;;;;2083907;28;20204;-58
2022/01/11 01:34:32;;;;;;;11.20;10.13;;;;;19.80;101925.00;;;;2087119;28;20197;-58
2022/01/11 01:35:39;;;;;;;11.47;10.30;;;;;19.80;101921.00;;;;2086753;28;20784;-58
2022/01/11 01:36:39;;;;;;;12.55;10.02;;;;;19.80;101924.00;;;;2083407;28;20274;-58
2022/01/11 01:37:39;;;;;;;11.10;10.00;;;;;19.80;101925.00;;;;2087590;28;20634;-58
2022/01/11 01:38:40;;;;;;;10.73;9.73;;;;;19.80;101920.00;;;;2087407;28;20227;-58
2022/01/11 01:39:40;;;;;;;11.43;10.33;;;;;19.70;101920.00;;;;2085548;28;20291;-58
2022/01/11 01:40:45;;;;;;;11.33;10.20;;;;;19.70;101923.00;;;;2087533;28;20208;-58
2022/01/11 01:41:46;;;;;;;10.73;9.73;;;;;19.80;101923.00;;;;2086724;28;20704;-58
2022/01/11 01:42:47;;;;;;;10.85;9.85;;;;;19.80;101923.00;;;;2086971;28;20317;-58
2022/01/11 01:43:51;;;;;;;10.65;9.65;;;;;19.80;101929.00;;;;2087361;28;20217;-58
2022/01/11 01:44:51;;;;;;;10.35;8.95;;;;;19.70;101926.00;;;;2086103;28;20591;-58
2022/01/11 01:45:52;;;;;;;10.33;9.37;;;;;19.70;101922.00;;;;2087480;28;20216;-59
2022/01/11 01:46:53;;;;;;;10.23;9.23;;;;;19.70;101926.00;;;;2087095;28;20224;-58
2022/01/11 01:47:57;;;;;;;10.70;9.67;;;;;19.70;101931.00;;;;2087133;28;20262;-58
2022/01/11 01:49:00;;;;;;;10.02;9.15;;;;;19.70;101925.00;;;;2087328;28;20221;-58
2022/01/11 01:50:00;;;;;;;10.77;9.85;;;;;19.70;101919.00;;;;2084916;28;20304;-58
2022/01/11 01:51:00;;;;;;;10.50;9.50;;;;;19.70;101924.00;;;;2087057;28;20275;-58
2022/01/11 01:52:01;;;;;;;10.27;9.27;;;;;19.70;101931.00;;;;2087401;28;20677;-58
2022/01/11 01:53:03;;;;;;;10.87;9.77;;;;;19.70;101933.00;;;;2085455;28;20220;-58
2022/01/11 01:54:03;;;;;;;10.80;9.80;;;;;19.70;101932.00;;;;2086548;28;20208;-58
2022/01/11 01:55:05;;;;;;;10.53;9.53;;;;;19.70;101931.00;;;;2076167;28;20212;-58
2022/01/11 01:56:05;;;;;;;11.23;10.13;;;;;19.70;101930.00;;;;2081942;28;20213;-58
2022/01/11 01:57:06;;;;;;;9.80;8.90;;;;;19.70;101939.00;;;;2073505;28;20272;-58
2022/01/11 01:58:07;;;;;;;10.70;9.70;;;;;19.70;101936.00;;;;2068935;28;20214;-58
2022/01/11 01:59:08;;;;;;;10.27;9.30;;;;;19.70;101927.00;;;;2078132;28;20214;-58
2022/01/11 02:00:11;;;;;;;10.52;9.45;;;;;19.60;101933.00;;;;2078063;28;20709;-57
2022/01/11 02:01:13;;;;;;;11.13;9.85;;;;;19.70;101941.00;;;;2078445;28;20307;-58
2022/01/11 02:02:14;;;;;;;10.35;9.35;;;;;19.70;101936.00;;;;2086331;28;20243;-58
2022/01/11 02:03:15;;;;;;;9.80;8.93;;;;;19.60;101936.00;;;;2086327;28;20263;-58
2022/01/11 02:04:17;;;;;;;11.00;9.90;;;;;19.60;101936.00;;;;2088688;28;20590;-58
2022/01/11 02:05:17;;;;;;;10.13;9.15;;;;;19.60;101943.00;;;;2088818;28;20451;-58
2022/01/11 02:06:18;;;;;;;10.67;9.67;;;;;19.60;101936.00;;;;2088819;28;20342;-58
2022/01/11 02:07:19;;;;;;;11.02;9.93;;;;;19.60;101942.00;;;;2089015;28;20296;-58
2022/01/11 02:08:19;;;;;;;9.60;8.80;;;;;19.60;101939.00;;;;2088721;28;20675;-58
2022/01/11 02:09:19;;;;;;;10.20;9.20;;;;;19.60;101940.00;;;;2089380;28;20734;-58
2022/01/11 02:10:20;;;;;;;10.23;9.23;;;;;19.60;101938.00;;;;2089193;28;20300;-58
2022/01/11 02:11:22;;;;;;;10.80;9.70;;;;;19.60;101944.00;;;;2088373;28;20220;-58
2022/01/11 02:12:24;;;;;;;10.73;9.73;;;;;19.60;101945.00;;;;2080419;28;20213;-58
2022/01/11 02:13:24;;;;;;;10.40;9.40;;;;;19.60;101947.00;;;;2088423;28;20712;-59
2022/01/11 02:14:26;;;;;;;10.30;9.40;;;;;19.60;101936.00;;;;2089289;28;20312;-59
2022/01/11 02:15:27;;;;;;;9.25;8.45;;;;;19.50;101941.00;;;;2085180;28;20209;-58
2022/01/11 02:16:27;;;;;;;10.20;8.90;;;;;19.60;101947.00;;;;2087873;28;20836;-58
2022/01/11 02:17:28;;;;;;;10.40;9.40;;;;;19.60;101946.00;;;;2088844;28;20288;-58
2022/01/11 02:18:29;;;;;;;10.15;9.25;;;;;19.60;101944.00;;;;2088647;28;20215;-58
2022/01/11 02:19:29;;;;;;;10.10;9.10;;;;;19.60;101955.00;;;;2088657;28;20584;-58
2022/01/11 02:20:29;;;;;;;9.87;8.97;;;;;19.50;101953.00;;;;2088427;28;20208;-58
2022/01/11 02:21:30;;;;;;;10.40;9.50;;;;;19.60;101956.00;;;;2088966;28;20264;-58
2022/01/11 02:22:30;;;;;;;9.97;9.00;;;;;19.50;101956.00;;;;2087353;28;20688;-58
2022/01/11 02:23:30;;;;;;;10.37;9.37;;;;;19.50;101969.00;;;;2088769;28;20749;-58
2022/01/11 02:24:33;;;;;;;11.30;9.20;;;;;19.50;101950.00;;;;2089200;28;20715;-58
2022/01/11 02:25:33;;;;;;;9.70;8.85;;;;;19.60;101952.00;;;;2088545;28;20205;-58
2022/01/11 02:26:34;;;;;;;10.10;9.20;;;;;19.50;101952.00;;;;2088680;28;20677;-58
2022/01/11 02:27:34;;;;;;;9.73;8.83;;;;;19.60;101951.00;;;;2089329;28;20228;-58
2022/01/11 02:28:35;;;;;;;9.50;8.60;;;;;19.50;101947.00;;;;2089224;28;20212;-58
2022/01/11 02:29:36;;;;;;;9.90;8.95;;;;;19.50;101956.00;;;;2089257;28;20217;-58
2022/01/11 02:30:36;;;;;;;10.00;9.10;;;;;19.50;101955.00;;;;2085718;28;20217;-58
2022/01/11 02:31:37;;;;;;;10.13;9.20;;;;;19.50;101956.00;;;;2088643;28;20232;-58
2022/01/11 02:32:48;;;;;;;9.73;8.82;;;;;19.50;101953.00;;;;2089316;28;20708;-58
2022/01/11 02:33:51;;;;;;;10.02;9.13;;;;;19.50;101967.00;;;;2089063;28;20221;-58
2022/01/11 02:34:51;;;;;;;10.07;9.07;;;;;19.50;101959.00;;;;2089113;28;20580;-58
2022/01/11 02:35:51;;;;;;;8.83;7.80;;;;;19.50;101950.00;;;;2088749;28;20217;-58
2022/01/11 02:36:52;;;;;;;10.10;9.30;;;;;19.50;101962.00;;;;2089136;28;20228;-58
2022/01/11 02:37:52;;;;;;;9.80;8.90;;;;;19.50;101960.00;;;;2089125;28;20220;-58
2022/01/11 02:38:53;;;;;;;8.80;8.00;;;;;19.50;101955.00;;;;2089092;28;20213;-58
2022/01/11 02:39:53;;;;;;;9.23;8.30;;;;;19.50;101964.00;;;;2080800;28;20220;-58
2022/01/11 02:40:54;;;;;;;9.40;8.60;;;;;19.50;101971.00;;;;2086473;28;20258;-58
2022/01/11 02:41:56;;;;;;;9.13;8.20;;;;;19.50;101967.00;;;;2089181;28;20209;-58
2022/01/11 02:42:56;;;;;;;10.85;9.15;;;;;19.50;101969.00;;;;2089008;28;20213;-57
2022/01/11 02:43:57;;;;;;;8.73;8.03;;;;;19.50;101971.00;;;;2089123;28;20220;-58
2022/01/11 02:44:57;;;;;;;9.80;8.80;;;;;19.50;101970.00;;;;2088097;28;20271;-58
2022/01/11 02:46:01;;;;;;;9.40;8.50;;;;;19.50;101974.00;;;;2087774;28;20208;-58
2022/01/11 02:47:02;;;;;;;8.80;8.00;;;;;19.40;101971.00;;;;2088799;28;20220;-58
2022/01/11 02:48:02;;;;;;;9.50;8.60;;;;;19.50;101976.00;;;;2088786;28;20544;-58
2022/01/11 02:49:03;;;;;;;8.77;7.97;;;;;19.50;101972.00;;;;2089023;28;20239;-58
2022/01/11 02:50:03;;;;;;;9.13;8.23;;;;;19.40;101972.00;;;;2089016;28;20241;-58
2022/01/11 02:51:04;;;;;;;8.50;7.70;;;;;19.40;101964.00;;;;2088930;28;20216;-58
2022/01/11 02:52:05;;;;;;;9.03;8.10;;;;;19.40;101972.00;;;;2089109;28;20254;-58
2022/01/11 02:53:05;;;;;;;9.00;8.20;;;;;19.40;101980.00;;;;2087904;28;20451;-58
2022/01/11 02:54:06;;;;;;;8.77;7.80;;;;;19.40;101972.00;;;;2088503;28;20197;-58
2022/01/11 02:55:08;;;;;;;8.50;7.70;;;;;19.40;101976.00;;;;2086817;28;20235;-58
2022/01/11 02:56:09;;;;;;;8.93;8.13;;;;;19.40;101973.00;;;;2088511;28;20209;-58
2022/01/11 02:57:09;;;;;;;8.87;8.07;;;;;19.40;101973.00;;;;2088653;28;20217;-58
2022/01/11 02:58:12;;;;;;;7.87;7.17;;;;;19.40;101971.00;;;;2088725;28;20215;-58
2022/01/11 02:59:13;;;;;;;8.55;7.75;;;;;19.40;101974.00;;;;2087844;28;20217;-57
2022/01/11 03:00:15;;;;;;;8.33;7.53;;;;;19.40;101964.00;;;;2087927;28;20576;-57
2022/01/11 03:01:16;;;;;;;8.50;7.70;;;;;19.40;101962.00;;;;2087645;28;20219;-58
2022/01/11 03:02:16;;;;;;;8.27;7.53;;;;;19.40;101965.00;;;;2087406;28;20220;-57
2022/01/11 03:03:22;;;;;;;8.87;7.97;;;;;19.40;101966.00;;;;2087541;28;20224;-58
2022/01/11 03:04:28;;;;;;;9.20;8.30;;;;;19.40;101961.00;;;;2087992;28;20213;-58
2022/01/11 03:05:28;;;;;;;8.85;8.02;;;;;19.40;101959.00;;;;2088240;28;20232;-58
2022/01/11 03:06:28;;;;;;;8.43;7.63;;;;;19.40;101966.00;;;;2087909;28;20215;-58
2022/01/11 03:07:29;;;;;;;8.57;7.77;;;;;19.40;101959.00;;;;2088432;28;20216;-58
2022/01/11 03:08:36;;;;;;;8.67;7.80;;;;;19.40;101971.00;;;;2088207;28;20243;-57
2022/01/11 03:09:59;;;;;;;8.02;7.32;;;;;19.40;101973.00;;;;2078621;28;20558;-58
2022/01/11 03:11:00;;;;;;;7.50;6.80;;;;;19.40;101969.00;;;;2086928;28;20883;-58
2022/01/11 03:12:00;;;;;;;7.70;7.00;;;;;19.30;101967.00;;;;2088892;28;20707;-57
2022/01/11 03:13:05;;;;;;;8.63;7.93;;;;;19.40;101970.00;;;;2088782;28;20250;-58
2022/01/11 03:14:05;;;;;;;8.70;7.55;;;;;19.30;101973.00;;;;2088209;28;20223;-58
2022/01/11 03:15:06;;;;;;;8.37;7.63;;;;;19.30;101965.00;;;;2087451;28;20263;-58
2022/01/11 03:16:06;;;;;;;8.40;7.70;;;;;19.40;101966.00;;;;2088253;28;20207;-59
2022/01/11 03:17:06;;;;;;;8.03;7.33;;;;;19.30;101962.00;;;;2088375;28;20217;-59
2022/01/11 03:18:07;;;;;;;8.43;7.73;;;;;19.40;101971.00;;;;2088827;28;20208;-59
2022/01/11 03:19:07;;;;;;;7.57;6.87;;;;;19.30;101966.00;;;;2088033;28;20270;-58
2022/01/11 03:20:08;;;;;;;8.60;7.80;;;;;19.30;101967.00;;;;2087602;28;20208;-59
2022/01/11 03:21:08;;;;;;;7.70;7.00;;;;;19.30;101969.00;;;;2084609;28;20255;-58
2022/01/11 03:22:08;;;;;;;8.00;7.27;;;;;19.30;101970.00;;;;2087476;28;20250;-58
2022/01/11 03:23:09;;;;;;;8.20;7.40;;;;;19.30;101968.00;;;;2087651;28;20217;-58
2022/01/11 03:24:09;;;;;;;8.33;7.40;;;;;19.30;101974.00;;;;2088095;28;20208;-58
2022/01/11 03:25:10;;;;;;;7.60;6.90;;;;;19.30;101978.00;;;;2087594;28;20209;-58
2022/01/11 03:26:10;;;;;;;7.03;6.33;;;;;19.30;101978.00;;;;2088152;28;20217;-58
2022/01/11 03:27:10;;;;;;;8.37;7.20;;;;;19.30;101976.00;;;;2088226;28;20730;-58
2022/01/11 03:28:11;;;;;;;7.80;6.90;;;;;19.30;101976.00;;;;2086774;28;20217;-58
2022/01/11 03:29:11;;;;;;;7.50;6.90;;;;;19.30;101974.00;;;;2088349;28;20248;-58
2022/01/11 03:30:11;;;;;;;8.03;7.33;;;;;19.30;101976.00;;;;2088467;28;20234;-58
2022/01/11 03:31:12;;;;;;;7.60;6.90;;;;;19.30;101981.00;;;;2087713;28;20232;-58
2022/01/11 03:32:16;;;;;;;7.97;7.27;;;;;19.30;101982.00;;;;2087999;28;20223;-58
2022/01/11 03:33:17;;;;;;;8.27;7.43;;;;;19.30;101979.00;;;;2084915;28;20205;-58
2022/01/11 03:34:19;;;;;;;7.70;7.00;;;;;19.30;101981.00;;;;2088670;28;20209;-58
2022/01/11 03:35:19;;;;;;;8.25;7.45;;;;;19.30;101982.00;;;;2087882;28;20220;-58
2022/01/11 03:36:20;;;;;;;7.97;7.27;;;;;19.30;101976.00;;;;2079695;28;20237;-58
2022/01/11 03:37:20;;;;;;;7.20;6.60;;;;;19.30;101985.00;;;;2087847;28;20236;-58
2022/01/11 03:38:22;;;;;;;7.80;7.20;;;;;19.30;101982.00;;;;2088583;28;20231;-58
2022/01/11 03:39:22;;;;;;;7.57;6.85;;;;;19.30;101978.00;;;;2088381;28;20842;-58
2022/01/11 03:40:23;;;;;;;8.30;7.50;;;;;19.30;101987.00;;;;2085523;28;20201;-58
2022/01/11 03:41:24;;;;;;;8.43;7.63;;;;;19.20;101987.00;;;;2084787;28;20688;-58
2022/01/11 03:42:24;;;;;;;8.27;7.40;;;;;19.30;101987.00;;;;2088534;28;20205;-58
2022/01/11 03:43:26;;;;;;;7.70;6.90;;;;;19.20;101987.00;;;;2088598;28;20351;-58
2022/01/11 03:44:26;;;;;;;8.15;7.43;;;;;19.20;101986.00;;;;2088446;28;20708;-58
2022/01/11 03:45:27;;;;;;;8.10;7.40;;;;;19.20;101983.00;;;;2088772;28;20204;-58
2022/01/11 03:46:27;;;;;;;8.07;7.27;;;;;19.20;101983.00;;;;2088506;28;20208;-58
2022/01/11 03:47:27;;;;;;;7.90;7.20;;;;;19.20;101994.00;;;;2088698;28;20243;-58
2022/01/11 03:48:28;;;;;;;8.40;7.60;;;;;19.30;101984.00;;;;2088246;28;20259;-57
2022/01/11 03:49:28;;;;;;;7.77;7.10;;;;;19.20;101992.00;;;;2088636;28;20224;-58
2022/01/11 03:50:30;;;;;;;7.90;7.13;;;;;19.20;101997.00;;;;2088420;28;20236;-58
2022/01/11 03:51:35;;;;;;;7.80;7.10;;;;;19.20;101984.00;;;;2088638;28;20212;-57
2022/01/11 03:52:35;;;;;;;7.60;6.90;;;;;19.20;101991.00;;;;2088573;28;20221;-58
2022/01/11 03:53:49;;;;;;;8.13;7.37;;;;;19.20;101991.00;;;;2088523;28;20875;-58
2022/01/11 03:56:56;;;;;;;8.47;7.53;;;;;19.20;102000.00;;;;2088268;28;20655;-58
2022/01/11 03:57:57;;;;;;;8.17;6.83;;;;;19.20;101995.00;;;;2088655;28;20221;-58
2022/01/11 03:58:57;;;;;;;8.57;7.10;;;;;19.20;101995.00;;;;2088464;28;20762;-58
2022/01/11 04:00:00;;;;;;;7.80;7.10;;;;;19.20;101999.00;;;;2088597;28;20220;-58
2022/01/11 04:01:01;;;;;;;7.80;7.00;;;;;19.20;102003.00;;;;2085976;28;20244;-58
2022/01/11 04:02:01;;;;;;;8.50;7.80;;;;;19.20;102002.00;;;;2088168;28;20212;-58
2022/01/11 04:03:02;;;;;;;8.70;7.90;;;;;19.20;101997.00;;;;2088493;28;20224;-58
2022/01/11 04:04:02;;;;;;;8.40;7.53;;;;;19.20;102001.00;;;;2088351;28;20232;-58
2022/01/11 04:05:03;;;;;;;7.77;7.07;;;;;19.20;102010.00;;;;2088506;28;20217;-58
2022/01/11 04:06:03;;;;;;;7.83;6.90;;;;;19.20;101997.00;;;;2087980;28;20217;-58
2022/01/11 04:07:04;;;;;;;7.43;6.77;;;;;19.20;102004.00;;;;2088292;28;20205;-58
2022/01/11 04:08:04;;;;;;;8.77;7.97;;;;;19.20;101995.00;;;;2088388;28;20300;-58
2022/01/11 04:09:05;;;;;;;8.00;7.30;;;;;19.20;101998.00;;;;2088267;28;20217;-57
2022/01/11 04:10:08;;;;;;;8.40;7.60;;;;;19.20;102002.00;;;;2087563;28;20225;-58
2022/01/11 04:11:08;;;;;;;7.50;6.80;;;;;19.10;102000.00;;;;2082969;28;20205;-58
2022/01/11 04:12:09;;;;;;;8.40;7.60;;;;;19.10;102004.00;;;;2086918;28;20683;-58
2022/01/11 04:13:09;;;;;;;8.20;7.50;;;;;19.10;102000.00;;;;2088398;28;20684;-58
2022/01/11 04:14:10;;;;;;;7.77;7.07;;;;;19.20;102004.00;;;;2088324;28;20239;-58
2022/01/11 04:15:10;;;;;;;8.47;7.67;;;;;19.10;102002.00;;;;2088365;28;20209;-57
2022/01/11 04:16:10;;;;;;;7.80;7.07;;;;;19.10;102010.00;;;;2088311;28;20205;-58
2022/01/11 04:17:11;;;;;;;7.57;6.87;;;;;19.10;101998.00;;;;2088312;28;20246;-58
2022/01/11 04:18:11;;;;;;;8.27;7.57;;;;;19.10;102003.00;;;;2088315;28;20244;-58
2022/01/11 04:19:11;;;;;;;8.03;7.20;;;;;19.10;102000.00;;;;2088216;28;20201;-58
2022/01/11 04:20:14;;;;;;;7.83;7.03;;;;;19.10;102006.00;;;;2088121;28;20217;-57
2022/01/11 04:21:14;;;;;;;8.25;7.43;;;;;19.20;102001.00;;;;2085454;28;20228;-58
2022/01/11 04:22:15;;;;;;;8.10;7.30;;;;;19.10;102004.00;;;;2088333;28;20308;-58
2022/01/11 04:23:15;;;;;;;8.40;7.60;;;;;19.10;102001.00;;;;2088422;28;20278;-57
2022/01/11 04:24:15;;;;;;;7.47;6.87;;;;;19.10;102003.00;;;;2088331;28;20217;-58
2022/01/11 04:25:16;;;;;;;8.17;7.33;;;;;19.10;102008.00;;;;2087469;28;20213;-58
2022/01/11 04:26:17;;;;;;;7.88;7.18;;;;;19.10;102009.00;;;;2084458;28;20266;-58
2022/01/11 04:27:17;;;;;;;7.93;7.23;;;;;19.10;102009.00;;;;2087516;28;20761;-57
2022/01/11 04:28:17;;;;;;;8.40;7.60;;;;;19.10;102019.00;;;;2087803;28;20726;-58
2022/01/11 04:29:18;;;;;;;7.27;6.57;;;;;19.10;102012.00;;;;2087877;28;20683;-58
2022/01/11 04:30:18;;;;;;;9.30;6.57;;;;;19.10;102009.00;;;;2087301;28;20213;-57
2022/01/11 04:31:18;;;;;;;7.23;6.63;;;;;19.10;102011.00;;;;2084638;28;20209;-58
2022/01/11 04:32:19;;;;;;;8.47;7.77;;;;;19.10;102008.00;;;;2087546;28;20234;-58
2022/01/11 04:33:19;;;;;;;7.93;7.23;;;;;19.10;102008.00;;;;2087080;28;20290;-58
2022/01/11 04:34:20;;;;;;;8.30;7.60;;;;;19.10;102013.00;;;;2087598;28;20213;-58
2022/01/11 04:35:20;;;;;;;7.53;6.83;;;;;19.10;102016.00;;;;2078043;28;20711;-58
2022/01/11 04:36:20;;;;;;;8.50;7.70;;;;;19.10;102010.00;;;;2091345;28;20230;-58
2022/01/11 04:37:21;;;;;;;8.50;7.70;;;;;19.10;102012.00;;;;2088217;28;20217;-58
2022/01/11 04:38:23;;;;;;;7.63;6.97;;;;;19.00;101991.00;;;;2088172;28;20220;-58
2022/01/11 04:39:23;;;;;;;8.00;7.20;;;;;19.10;102003.00;;;;2086438;28;20213;-59
2022/01/11 04:40:24;;;;;;;8.00;7.20;;;;;19.10;102011.00;;;;2086130;28;20215;-58
2022/01/11 04:41:24;;;;;;;7.90;7.20;;;;;19.10;102006.00;;;;2088148;28;20217;-58
2022/01/11 04:42:24;;;;;;;7.63;6.93;;;;;19.10;102005.00;;;;2087279;28;20209;-58
2022/01/11 04:43:25;;;;;;;8.10;7.33;;;;;19.00;102005.00;;;;2087586;28;20223;-58
2022/01/11 04:44:25;;;;;;;8.07;7.27;;;;;19.00;102000.00;;;;2088066;28;20223;-58
2022/01/11 04:45:25;;;;;;;7.97;7.17;;;;;19.00;102004.00;;;;2087606;28;20215;-58
2022/01/11 04:46:26;;;;;;;7.20;6.60;;;;;19.00;102007.00;;;;2087428;28;20208;-58
2022/01/11 04:47:27;;;;;;;7.65;6.95;;;;;19.00;102002.00;;;;2088077;28;20204;-58
2022/01/11 04:48:29;;;;;;;7.03;6.43;;;;;19.00;102003.00;;;;2087668;28;20236;-58
2022/01/11 04:49:30;;;;;;;7.63;6.97;;;;;19.00;102002.00;;;;2088107;28;20205;-58
2022/01/11 04:50:30;;;;;;;6.93;6.23;;;;;19.00;101999.00;;;;2087598;28;20254;-58
2022/01/11 04:51:33;;;;;;;7.50;6.80;;;;;19.00;102005.00;;;;2087369;28;20216;-58
2022/01/11 04:52:33;;;;;;;8.10;7.30;;;;;19.00;102005.00;;;;2086794;28;20224;-58
2022/01/11 04:53:34;;;;;;;7.63;6.63;;;;;19.00;102011.00;;;;2085992;28;20859;-58
2022/01/11 04:54:34;;;;;;;7.47;6.77;;;;;19.00;102004.00;;;;2087623;28;20550;-58
2022/01/11 04:55:34;;;;;;;7.43;6.73;;;;;19.00;102008.00;;;;2087257;28;20707;-58
2022/01/11 04:56:35;;;;;;;7.83;7.13;;;;;19.00;102015.00;;;;2087090;28;20688;-58
2022/01/11 04:57:35;;;;;;;7.67;6.97;;;;;19.00;102011.00;;;;2086915;28;20212;-58
2022/01/11 04:58:36;;;;;;;7.40;6.70;;;;;19.00;102012.00;;;;2086916;28;20602;-57
2022/01/11 04:59:36;;;;;;;7.10;6.50;;;;;19.00;102011.00;;;;2087491;28;20701;-58
2022/01/11 05:00:37;;;;;;;7.77;7.07;;;;;19.00;102020.00;;;;2087279;28;20231;-58
2022/01/11 05:01:37;;;;;;;7.07;6.43;;;;;19.00;102013.00;;;;2087665;28;20211;-58
2022/01/11 05:02:37;;;;;;;7.87;7.07;;;;;19.00;102013.00;;;;2086656;28;20223;-58
2022/01/11 05:03:38;;;;;;;8.00;6.70;;;;;19.00;102018.00;;;;2087294;28;20704;-58